createdAt,value
2016-02-24T00:00:13.408Z,62.68
2016-02-24T00:01:13.395Z,62.49
2016-02-24T00:02:13.381Z,62.4
2016-02-24T00:03:13.353Z,62.78
2016-02-24T00:04:13.341Z,62.49
2016-02-24T00:05:13.312Z,62.3
2016-02-24T00:06:13.267Z,62.49
2016-02-24T00:07:13.255Z,62.49
2016-02-24T00:08:13.227Z,62.49
2016-02-24T00:09:13.213Z,62.59
2016-02-24T00:10:13.185Z,62.49
2016-02-24T00:11:13.296Z,62.78
2016-02-24T00:12:13.143Z,62.68
2016-02-24T00:13:13.098Z,62.59
2016-02-24T00:14:13.086Z,62.59
2016-02-24T00:15:13.057Z,62.59
2016-02-24T00:16:13.043Z,62.59
2016-02-24T00:17:13.031Z,62.11
2016-02-24T00:18:12.987Z,62.01
2016-02-24T00:19:12.958Z,62.4
2016-02-24T00:20:12.930Z,62.21
2016-02-24T00:21:12.932Z,62.4
2016-02-24T00:22:12.889Z,62.3
2016-02-24T00:23:12.875Z,61.16
2016-02-24T00:24:12.863Z,61.16
2016-02-24T00:25:12.818Z,61.82
2016-02-24T00:26:12.790Z,61.72
2016-02-24T00:27:12.762Z,61.54
2016-02-24T00:28:12.748Z,62.01
2016-02-24T00:29:12.720Z,61.44
2016-02-24T00:30:12.692Z,61.82
2016-02-24T00:31:12.678Z,60.77
2016-02-24T00:32:12.650Z,60.77
2016-02-24T00:33:12.653Z,61.16
2016-02-24T00:34:12.592Z,61.82
2016-02-24T00:35:12.579Z,61.16
2016-02-24T00:36:12.556Z,61.35
2016-02-24T00:37:12.543Z,61.35
2016-02-24T00:38:12.515Z,61.16
2016-02-24T00:39:12.501Z,61.25
2016-02-24T00:40:12.457Z,61.63
2016-02-24T00:41:12.429Z,61.44
2016-02-24T00:42:12.415Z,61.44
2016-02-24T00:43:12.403Z,61.25
2016-02-24T00:44:12.359Z,61.35
2016-02-24T00:45:12.330Z,60.68
2016-02-24T00:46:12.318Z,61.16
2016-02-24T00:47:12.289Z,61.25
2016-02-24T00:48:12.260Z,61.44
2016-02-24T00:49:12.248Z,61.41
2016-02-24T00:50:12.234Z,61.25
2016-02-24T00:51:12.206Z,61.63
2016-02-24T00:52:12.161Z,61.22
2016-02-24T00:53:12.181Z,61.25
2016-02-24T00:54:12.136Z,61.32
2016-02-24T00:55:12.092Z,61.41
2016-02-24T00:56:12.078Z,60.84
2016-02-24T00:57:12.066Z,61.25
2016-02-24T00:58:12.021Z,60.93
2016-02-24T00:59:11.993Z,60.87
2016-02-24T01:00:11.980Z,61.25
2016-02-24T01:01:11.966Z,61.16
2016-02-24T01:02:11.923Z,61.54
2016-02-24T01:03:11.894Z,60.93
2016-02-24T01:04:11.897Z,61.03
2016-02-24T01:05:11.900Z,61.32
2016-02-24T01:06:11.841Z,61.13
2016-02-24T01:07:11.816Z,61.32
2016-02-24T01:08:12.054Z,60.58
2016-02-24T01:09:11.759Z,61.13
2016-02-24T01:10:11.762Z,61.32
2016-02-24T01:11:11.718Z,60.74
2016-02-24T01:12:11.704Z,61.32
2016-02-24T01:13:11.801Z,60.64
2016-02-24T01:14:11.631Z,61.41
2016-02-24T01:15:11.619Z,61.22
2016-02-24T01:16:11.606Z,61.69
2016-02-24T01:17:11.561Z,61.32
2016-02-24T01:18:11.533Z,60.84
2016-02-24T01:19:11.520Z,60.64
2016-02-24T01:20:11.492Z,60.84
2016-02-24T01:21:11.478Z,61.22
2016-02-24T01:22:11.450Z,61.13
2016-02-24T01:23:11.422Z,61.13
2016-02-24T01:24:11.425Z,61.41
2016-02-24T01:25:11.395Z,60.74
2016-02-24T01:26:11.352Z,61.22
2016-02-24T01:27:11.338Z,60.64
2016-02-24T01:28:11.295Z,61.32
2016-02-24T01:29:11.281Z,61.03
2016-02-24T01:30:11.253Z,61.32
2016-02-24T01:31:11.240Z,61.32
2016-02-24T01:32:11.227Z,61.41
2016-02-24T01:33:11.199Z,60.84
2016-02-24T01:34:11.155Z,60.55
2016-02-24T01:35:11.157Z,60.27
2016-02-24T01:36:11.097Z,61.32
2016-02-24T01:37:11.084Z,61.32
2016-02-24T01:38:11.072Z,61.22
2016-02-24T01:39:11.043Z,61.51
2016-02-24T01:40:11.015Z,61.32
2016-02-24T01:41:10.985Z,61.32
2016-02-24T01:42:10.957Z,60.93
2016-02-24T01:43:10.943Z,61.13
2016-02-24T01:44:10.947Z,61.22
2016-02-24T01:45:10.887Z,61.32
2016-02-24T01:46:10.858Z,60.55
2016-02-24T01:47:10.845Z,60.74
2016-02-24T01:48:10.817Z,61.32
2016-02-24T01:49:10.632Z,60.27
2016-02-24T01:50:10.759Z,60.84
2016-02-24T01:51:10.762Z,60.84
2016-02-24T01:52:10.718Z,60.74
2016-02-24T01:53:10.690Z,60.17
2016-02-24T01:54:10.678Z,60.55
2016-02-24T01:55:10.648Z,60.64
2016-02-24T01:56:10.619Z,60.64
2016-02-24T01:57:10.607Z,60.74
2016-02-24T01:58:10.578Z,60.46
2016-02-24T01:59:10.550Z,60.74
2016-02-24T02:00:10.553Z,60.64
2016-02-24T02:01:10.539Z,60.55
2016-02-24T02:02:10.480Z,60.55
2016-02-24T02:03:10.451Z,60.46
2016-02-24T02:04:10.422Z,60.55
2016-02-24T02:05:10.393Z,60.27
2016-02-24T02:06:10.380Z,60.55
2016-02-24T02:07:10.352Z,60.64
2016-02-24T02:08:10.324Z,60.46
2016-02-24T02:09:10.311Z,60.55
2016-02-24T02:10:10.516Z,60.64
2016-02-24T02:11:10.269Z,60.74
2016-02-24T02:12:10.257Z,60.55
2016-02-24T02:13:10.229Z,60.55
2016-02-24T02:14:10.199Z,60.84
2016-02-24T02:15:10.170Z,60.55
2016-02-24T02:16:10.127Z,60.93
2016-02-24T02:17:10.114Z,60.27
2016-02-24T02:18:10.085Z,60.74
2016-02-24T02:19:10.073Z,60.46
2016-02-24T02:20:10.043Z,60.46
2016-02-24T02:21:10.015Z,60.74
2016-02-24T02:22:09.987Z,60.74
2016-02-24T02:23:09.989Z,61.22
2016-02-24T02:24:09.945Z,60.36
2016-02-24T02:25:09.916Z,60.74
2016-02-24T02:26:09.889Z,60.64
2016-02-24T02:27:09.859Z,61.32
2016-02-24T02:28:09.847Z,60.55
2016-02-24T02:29:09.818Z,60.84
2016-02-24T02:30:09.806Z,60.64
2016-02-24T02:31:09.777Z,60.84
2016-02-24T02:32:09.733Z,60.55
2016-02-24T02:33:09.720Z,61.22
2016-02-24T02:34:09.706Z,60.64
2016-02-24T02:35:09.678Z,60.64
2016-02-24T02:36:09.665Z,60.64
2016-02-24T02:37:09.636Z,60.46
2016-02-24T02:38:09.607Z,60.46
2016-02-24T02:39:09.579Z,60.55
2016-02-24T02:40:09.551Z,60.55
2016-02-24T02:41:09.522Z,60.46
2016-02-24T02:42:09.493Z,60.64
2016-02-24T02:43:09.496Z,60.55
2016-02-24T02:44:09.452Z,60.27
2016-02-24T02:45:09.470Z,60.64
2016-02-24T02:46:09.426Z,60.64
2016-02-24T02:47:09.382Z,61.32
2016-02-24T02:48:09.354Z,60.46
2016-02-24T02:49:09.325Z,60.36
2016-02-24T02:50:09.312Z,60.64
2016-02-24T02:51:09.283Z,60.55
2016-02-24T02:52:09.099Z,60.27
2016-02-24T02:53:09.242Z,60.27
2016-02-24T02:54:09.213Z,60.46
2016-02-24T02:55:09.185Z,59.78
2016-02-24T02:56:09.156Z,60.64
2016-02-24T02:57:09.143Z,60.55
2016-02-24T02:58:09.115Z,60.36
2016-02-24T02:59:09.086Z,60.74
2016-02-24T03:00:09.135Z,60.64
2016-02-24T03:01:09.232Z,60.55
2016-02-24T03:02:09.016Z,60.64
2016-02-24T03:03:08.988Z,60.55
2016-02-24T03:04:08.974Z,60.27
2016-02-24T03:05:08.930Z,60.55
2016-02-24T03:06:08.917Z,60.55
2016-02-24T03:07:08.888Z,60.46
2016-02-24T03:08:08.877Z,60.64
2016-02-24T03:09:08.832Z,60.55
2016-02-24T03:10:08.819Z,60.84
2016-02-24T03:11:08.791Z,60.27
2016-02-24T03:12:08.777Z,60.64
2016-02-24T03:13:08.749Z,60.55
2016-02-24T03:14:08.721Z,60.36
2016-02-24T03:15:08.691Z,60.55
2016-02-24T03:16:08.664Z,60.36
2016-02-24T03:17:08.652Z,60.55
2016-02-24T03:18:08.623Z,60.84
2016-02-24T03:19:08.610Z,60.64
2016-02-24T03:20:08.580Z,60.27
2016-02-24T03:21:08.553Z,60.36
2016-02-24T03:22:08.524Z,60.55
2016-02-24T03:23:08.511Z,60.64
2016-02-24T03:24:08.466Z,60.64
2016-02-24T03:25:08.438Z,60.27
2016-02-24T03:26:08.440Z,60.46
2016-02-24T03:27:08.413Z,60.55
2016-02-24T03:28:08.368Z,60.17
2016-02-24T03:29:08.371Z,60.64
2016-02-24T03:30:08.326Z,60.46
2016-02-24T03:31:08.298Z,60.55
2016-02-24T03:32:08.301Z,60.55
2016-02-24T03:33:08.272Z,60.46
2016-02-24T03:34:08.228Z,60.64
2016-02-24T03:35:08.200Z,60.71
2016-02-24T03:36:08.202Z,60.64
2016-02-24T03:37:08.158Z,60.46
2016-02-24T03:38:08.129Z,60.46
2016-02-24T03:39:08.117Z,60.74
2016-02-24T03:40:08.086Z,60.27
2016-02-24T03:41:08.045Z,60.64
2016-02-24T03:42:08.004Z,61.32
2016-02-24T03:43:07.978Z,61.32
2016-02-24T03:44:07.938Z,61.13
2016-02-24T03:45:07.898Z,61.22
2016-02-24T03:46:07.867Z,60.71
2016-02-24T03:47:07.849Z,60.46
2016-02-24T03:48:07.816Z,60.46
2016-02-24T03:49:07.784Z,61.32
2016-02-24T03:50:07.782Z,60.27
2016-02-24T03:51:07.736Z,60.17
2016-02-24T03:52:07.706Z,61.41
2016-02-24T03:53:07.675Z,60.64
2016-02-24T03:54:07.646Z,60.74
2016-02-24T03:55:07.616Z,61
2016-02-24T03:56:07.618Z,60.81
2016-02-24T03:57:07.574Z,60.64
2016-02-24T03:58:07.794Z,60.81
2016-02-24T03:59:07.530Z,60.27
2016-02-24T04:00:07.501Z,60.55
2016-02-24T04:01:07.472Z,60.36
2016-02-24T04:02:07.443Z,60.42
2016-02-24T04:03:07.493Z,60.52
2016-02-24T04:04:07.401Z,60.36
2016-02-24T04:05:07.379Z,60.64
2016-02-24T04:06:07.350Z,61.1
2016-02-24T04:07:07.321Z,60.27
2016-02-24T04:08:07.309Z,60.64
2016-02-24T04:09:07.280Z,60.74
2016-02-24T04:10:07.267Z,60.27
2016-02-24T04:11:07.223Z,60.14
2016-02-24T04:12:07.241Z,60.33
2016-02-24T04:13:07.181Z,60.33
2016-02-24T04:14:07.184Z,60.42
2016-02-24T04:15:07.139Z,60.33
2016-02-24T04:16:07.111Z,60.61
2016-02-24T04:17:07.098Z,60.61
2016-02-24T04:18:07.069Z,60.24
2016-02-24T04:19:07.025Z,60.36
2016-02-24T04:20:07.059Z,60.64
2016-02-24T04:21:07.000Z,60.52
2016-02-24T04:22:07.002Z,60.52
2016-02-24T04:23:06.943Z,60.55
2016-02-24T04:24:06.946Z,60.46
2016-02-24T04:25:06.885Z,60.61
2016-02-24T04:26:06.857Z,60.55
2016-02-24T04:27:06.829Z,60.61
2016-02-24T04:28:06.816Z,60.17
2016-02-24T04:29:06.787Z,60.52
2016-02-24T04:30:06.773Z,60.71
2016-02-24T04:31:06.730Z,60.64
2016-02-24T04:32:06.717Z,60.17
2016-02-24T04:33:06.688Z,60.42
2016-02-24T04:34:06.660Z,60.64
2016-02-24T04:35:06.646Z,60.24
2016-02-24T04:36:06.617Z,60.64
2016-02-24T04:37:06.590Z,59.76
2016-02-24T04:38:06.561Z,60.55
2016-02-24T04:39:06.532Z,60.84
2016-02-24T04:40:06.519Z,60.61
2016-02-24T04:41:06.491Z,60.27
2016-02-24T04:42:06.462Z,60.81
2016-02-24T04:43:06.497Z,60.61
2016-02-24T04:44:06.421Z,60.61
2016-02-24T04:45:06.408Z,60.61
2016-02-24T04:46:06.363Z,60.71
2016-02-24T04:47:06.351Z,60.74
2016-02-24T04:48:06.338Z,60.52
2016-02-24T04:49:06.294Z,60.52
2016-02-24T04:50:06.280Z,60.52
2016-02-24T04:51:06.252Z,60.81
2016-02-24T04:52:06.224Z,60.27
2016-02-24T04:53:06.210Z,60.42
2016-02-24T04:54:06.171Z,60.93
2016-02-24T04:55:06.142Z,60.52
2016-02-24T04:56:06.128Z,60.27
2016-02-24T04:57:06.100Z,60.61
2016-02-24T04:58:06.072Z,60.84
2016-02-24T04:59:06.043Z,60.61
2016-02-24T05:00:06.233Z,60.33
2016-02-24T05:01:06.002Z,60.33
2016-02-24T05:02:05.989Z,60.74
2016-02-24T05:03:05.960Z,60.61
2016-02-24T05:04:05.932Z,60.71
2016-02-24T05:05:05.919Z,60.42
2016-02-24T05:06:05.874Z,60.81
2016-02-24T05:07:05.846Z,60.61
2016-02-24T05:08:05.833Z,60.24
2016-02-24T05:09:05.804Z,60.24
2016-02-24T05:10:05.791Z,60.42
2016-02-24T05:11:05.747Z,60.33
2016-02-24T05:12:05.735Z,60.42
2016-02-24T05:13:05.706Z,60.27
2016-02-24T05:14:05.693Z,60.61
2016-02-24T05:15:05.649Z,61.19
2016-02-24T05:16:05.652Z,60.71
2016-02-24T05:17:05.607Z,60.33
2016-02-24T05:18:05.595Z,60.52
2016-02-24T05:19:05.565Z,60.52
2016-02-24T05:20:05.537Z,60.81
2016-02-24T05:21:05.508Z,60.24
2016-02-24T05:22:05.481Z,60.42
2016-02-24T05:23:05.467Z,60.42
2016-02-24T05:24:05.439Z,60.61
2016-02-24T05:25:05.410Z,60.14
2016-02-24T05:26:05.397Z,60.61
2016-02-24T05:27:05.369Z,60.52
2016-02-24T05:28:05.325Z,60.71
2016-02-24T05:29:05.327Z,60.52
2016-02-24T05:30:05.283Z,60.52
2016-02-24T05:31:05.254Z,60.71
2016-02-24T05:32:05.225Z,60.24
2016-02-24T05:33:05.228Z,60.24
2016-02-24T05:34:05.183Z,60.52
2016-02-24T05:35:05.156Z,60.33
2016-02-24T05:36:05.143Z,60.24
2016-02-24T05:37:05.113Z,60.52
2016-02-24T05:38:05.086Z,60.33
2016-02-24T05:39:05.072Z,60.61
2016-02-24T05:40:05.044Z,60.71
2016-02-24T05:41:05.015Z,60.24
2016-02-24T05:42:04.987Z,60.33
2016-02-24T05:43:04.974Z,60.42
2016-02-24T05:44:04.945Z,60.71
2016-02-24T05:45:04.933Z,60.24
2016-02-24T05:46:04.888Z,60.61
2016-02-24T05:47:04.906Z,60.81
2016-02-24T05:48:04.831Z,60.52
2016-02-24T05:49:04.818Z,60.71
2016-02-24T05:50:04.790Z,60.61
2016-02-24T05:51:04.761Z,60.24
2016-02-24T05:52:04.732Z,60.52
2016-02-24T05:53:04.735Z,60.24
2016-02-24T05:54:04.692Z,60.61
2016-02-24T05:55:04.679Z,60.52
2016-02-24T05:56:04.650Z,60.42
2016-02-24T05:57:04.887Z,60.33
2016-02-24T05:58:04.592Z,60.81
2016-02-24T05:59:04.580Z,60.61
2016-02-24T06:00:04.535Z,60.33
2016-02-24T06:01:04.522Z,60.42
2016-02-24T06:02:04.508Z,60.33
2016-02-24T06:03:04.481Z,60.24
2016-02-24T06:04:04.452Z,60.33
2016-02-24T06:05:04.439Z,60.52
2016-02-24T06:06:04.395Z,60.61
2016-02-24T06:07:04.382Z,60.71
2016-02-24T06:08:04.339Z,60.52
2016-02-24T06:09:04.326Z,60.42
2016-02-24T06:10:04.297Z,60.33
2016-02-24T06:11:04.284Z,60.52
2016-02-24T06:12:04.240Z,60.33
2016-02-24T06:13:04.228Z,60.42
2016-02-24T06:14:04.199Z,60.71
2016-02-24T06:15:04.170Z,60.81
2016-02-24T06:16:04.158Z,60.52
2016-02-24T06:17:04.128Z,60.42
2016-02-24T06:18:04.100Z,60.42
2016-02-24T06:19:04.088Z,60.42
2016-02-24T06:20:04.059Z,60.24
2016-02-24T06:21:04.046Z,60.71
2016-02-24T06:22:04.002Z,60.42
2016-02-24T06:23:03.989Z,60.71
2016-02-24T06:24:03.944Z,60.61
2016-02-24T06:25:03.963Z,60.52
2016-02-24T06:26:03.918Z,60.61
2016-02-24T06:27:03.874Z,60.61
2016-02-24T06:28:03.861Z,60.24
2016-02-24T06:29:03.832Z,60.81
2016-02-24T06:30:03.804Z,60.42
2016-02-24T06:31:03.776Z,60.61
2016-02-24T06:32:03.763Z,60.52
2016-02-24T06:33:03.734Z,60.24
2016-02-24T06:34:03.706Z,60.42
2016-02-24T06:35:03.676Z,60.61
2016-02-24T06:36:03.649Z,60.61
2016-02-24T06:37:03.651Z,60.81
2016-02-24T06:38:03.607Z,60.33
2016-02-24T06:39:03.594Z,60.14
2016-02-24T06:40:03.565Z,60.52
2016-02-24T06:41:03.537Z,60.14
2016-02-24T06:42:03.508Z,60.33
2016-02-24T06:43:03.481Z,60.61
2016-02-24T06:44:03.497Z,60.33
2016-02-24T06:45:03.478Z,60.14
2016-02-24T06:46:03.403Z,60.24
2016-02-24T06:47:03.867Z,59.85
2016-02-24T06:48:03.469Z,59.76
2016-02-24T06:49:03.316Z,60.14
2016-02-24T06:50:03.303Z,59.85
2016-02-24T06:51:03.275Z,60.24
2016-02-24T06:52:03.246Z,59.76
2016-02-24T06:53:03.233Z,60.24
2016-02-24T06:54:03.205Z,60.42
2016-02-24T06:55:03.177Z,60.33
2016-02-24T06:56:03.148Z,60.33
2016-02-24T06:57:03.118Z,60.42
2016-02-24T06:58:03.107Z,60.33
2016-02-24T06:59:03.077Z,60.24
2016-02-24T07:00:03.065Z,60.14
2016-02-24T07:01:03.037Z,59.66
2016-02-24T07:02:03.008Z,59.95
2016-02-24T07:03:02.979Z,59.66
2016-02-24T07:04:02.950Z,59.38
2016-02-24T07:05:02.938Z,59.76
2016-02-24T07:06:02.956Z,59.66
2016-02-24T07:07:02.880Z,59.28
2016-02-24T07:08:02.852Z,59.38
2016-02-24T07:09:02.828Z,59.85
2016-02-24T07:10:02.799Z,59.19
2016-02-24T07:11:02.787Z,59.66
2016-02-24T07:12:02.758Z,59.28
2016-02-24T07:13:02.730Z,59.09
2016-02-24T07:14:02.700Z,59.76
2016-02-24T07:15:02.688Z,59.76
2016-02-24T07:16:02.660Z,59.56
2016-02-24T07:17:02.630Z,59.47
2016-02-24T07:18:02.603Z,58.99
2016-02-24T07:19:02.605Z,59.38
2016-02-24T07:20:02.576Z,59.38
2016-02-24T07:21:02.532Z,59.38
2016-02-24T07:22:02.504Z,59.56
2016-02-24T07:23:02.491Z,59.76
2016-02-24T07:24:02.462Z,59.66
2016-02-24T07:25:02.449Z,59.85
2016-02-24T07:26:02.421Z,59.56
2016-02-24T07:27:02.392Z,59.85
2016-02-24T07:28:02.411Z,59.66
2016-02-24T07:29:02.335Z,59.66
2016-02-24T07:30:02.307Z,59.47
2016-02-24T07:31:02.293Z,59.28
2016-02-24T07:32:02.265Z,59.56
2016-02-24T07:33:02.237Z,59.19
2016-02-24T07:34:02.223Z,59.47
2016-02-24T07:35:02.195Z,59.76
2016-02-24T07:36:02.166Z,59.09
2016-02-24T07:37:02.153Z,59.38
2016-02-24T07:38:02.109Z,59.38
2016-02-24T07:39:02.078Z,59.38
2016-02-24T07:40:02.049Z,59.5
2016-02-24T07:41:02.036Z,59.47
2016-02-24T07:42:02.008Z,59.28
2016-02-24T07:43:01.979Z,59.56
2016-02-24T07:44:01.982Z,59.28
2016-02-24T07:45:02.203Z,59.38
2016-02-24T07:46:01.909Z,59.59
2016-02-24T07:47:01.880Z,59.56
2016-02-24T07:48:01.868Z,59.31
2016-02-24T07:49:01.839Z,59.09
2016-02-24T07:50:01.905Z,59.31
2016-02-24T07:51:01.782Z,59.09
2016-02-24T07:52:01.769Z,58.99
2016-02-24T07:53:01.741Z,58.99
2016-02-24T07:54:01.713Z,59.28
2016-02-24T07:55:01.683Z,59.12
2016-02-24T07:56:01.671Z,58.9
2016-02-24T07:57:01.643Z,59.47
2016-02-24T07:58:01.613Z,59.22
2016-02-24T07:59:01.601Z,59.69
2016-02-24T08:00:01.572Z,59.56
2016-02-24T08:01:01.543Z,59.76
2016-02-24T08:02:01.515Z,59.59
2016-02-24T08:03:01.501Z,59.69
2016-02-24T08:04:01.474Z,59.88
2016-02-24T08:05:01.445Z,59.69
2016-02-24T08:06:01.416Z,59.76
2016-02-24T08:07:01.388Z,59.76
2016-02-24T08:08:01.593Z,59.47
2016-02-24T08:09:01.346Z,59.59
2016-02-24T08:10:01.317Z,59.38
2016-02-24T08:11:01.320Z,59.5
2016-02-24T08:12:01.261Z,59.56
2016-02-24T08:13:01.248Z,59.47
2016-02-24T08:14:01.234Z,59.56
2016-02-24T08:15:01.191Z,59.28
2016-02-24T08:16:01.177Z,59.19
2016-02-24T08:17:01.164Z,59.38
2016-02-24T08:18:01.135Z,59.41
2016-02-24T08:19:01.122Z,59.41
2016-02-24T08:20:01.079Z,59.09
2016-02-24T08:21:01.050Z,59.22
2016-02-24T08:22:01.037Z,59.31
2016-02-24T08:23:01.008Z,59.02
2016-02-24T08:24:00.980Z,59.5
2016-02-24T08:25:00.952Z,59.12
2016-02-24T08:26:00.923Z,59.02
2016-02-24T08:27:00.910Z,59.22
2016-02-24T08:28:00.882Z,59.12
2016-02-24T08:29:00.853Z,59.5
2016-02-24T08:30:00.841Z,59.5
2016-02-24T08:31:00.843Z,59.22
2016-02-24T08:32:00.782Z,59.22
2016-02-24T08:33:00.754Z,59.41
2016-02-24T08:34:00.726Z,59.41
2016-02-24T08:35:00.713Z,58.73
2016-02-24T08:36:00.700Z,59.41
2016-02-24T08:37:00.656Z,59.5
2016-02-24T08:38:00.628Z,59.31
2016-02-24T08:39:00.614Z,59.22
2016-02-24T08:40:00.586Z,59.02
2016-02-24T08:41:00.557Z,59.12
2016-02-24T08:42:00.528Z,58.83
2016-02-24T08:43:00.516Z,58.93
2016-02-24T08:44:00.487Z,58.93
2016-02-24T08:45:00.458Z,59.12
2016-02-24T08:46:00.430Z,59.22
2016-02-24T08:47:00.698Z,59.02
2016-02-24T08:48:00.389Z,59.41
2016-02-24T08:49:00.203Z,58.73
2016-02-24T08:50:00.331Z,58.64
2016-02-24T08:51:00.319Z,58.36
2016-02-24T08:52:00.305Z,58.45
2016-02-24T08:53:00.261Z,59.12
2016-02-24T08:54:00.249Z,58.64
2016-02-24T08:55:00.219Z,58.73
2016-02-24T08:56:00.191Z,58.73
2016-02-24T08:57:00.179Z,58.07
2016-02-24T08:58:00.150Z,58.16
2016-02-24T08:59:00.121Z,58.16
2016-02-24T09:00:00.108Z,58.16
2016-02-24T09:01:00.065Z,58.26
2016-02-24T09:02:00.051Z,58.16
2016-02-24T09:03:00.023Z,58.16
2016-02-24T09:03:59.994Z,57.78
2016-02-24T09:04:59.965Z,58.26
2016-02-24T09:05:59.953Z,57.87
2016-02-24T09:06:59.924Z,58.07
2016-02-24T09:07:59.911Z,58.36
2016-02-24T09:08:59.882Z,58.26
2016-02-24T09:09:59.854Z,58.45
2016-02-24T09:10:59.842Z,57.97
2016-02-24T09:11:59.812Z,57.78
2016-02-24T09:12:59.784Z,58.45
2016-02-24T09:13:59.771Z,57.87
2016-02-24T09:14:59.742Z,57.87
2016-02-24T09:15:59.713Z,57.78
2016-02-24T09:16:59.686Z,57.87
2016-02-24T09:17:59.672Z,57.78
2016-02-24T09:18:59.644Z,57.68
2016-02-24T09:19:59.616Z,57.5
2016-02-24T09:20:59.586Z,57.68
2016-02-24T09:21:59.558Z,57.68
2016-02-24T09:22:59.530Z,57.87
2016-02-24T09:23:59.516Z,58.07
2016-02-24T09:24:59.488Z,58.07
2016-02-24T09:25:59.459Z,57.31
2016-02-24T09:26:59.447Z,57.43
2016-02-24T09:27:59.418Z,57.68
2016-02-24T09:28:59.390Z,57.59
2016-02-24T09:29:59.377Z,57.4
2016-02-24T09:30:59.348Z,57.31
2016-02-24T09:31:59.319Z,57.11
2016-02-24T09:32:59.291Z,57.04
2016-02-24T09:33:59.278Z,57.71
2016-02-24T09:34:59.248Z,57.33
2016-02-24T09:35:59.220Z,57.14
2016-02-24T09:36:59.192Z,57.04
2016-02-24T09:37:59.335Z,57.04
2016-02-24T09:38:59.151Z,57.33
2016-02-24T09:39:59.137Z,57.33
2016-02-24T09:40:59.109Z,57.04
2016-02-24T09:41:59.080Z,57.02
2016-02-24T09:42:59.053Z,57.4
2016-02-24T09:43:59.023Z,57.31
2016-02-24T09:44:59.010Z,57.62
2016-02-24T09:45:58.982Z,57.43
2016-02-24T09:46:58.984Z,57.33
2016-02-24T09:47:58.941Z,57.33
2016-02-24T09:48:58.912Z,57.33
2016-02-24T09:49:58.883Z,57.53
2016-02-24T09:50:58.855Z,57.33
2016-02-24T09:51:58.842Z,57.43
2016-02-24T09:52:58.813Z,57.04
2016-02-24T09:53:58.785Z,57.24
2016-02-24T09:54:58.772Z,57.33
2016-02-24T09:55:58.744Z,57.43
2016-02-24T09:56:58.715Z,57.24
2016-02-24T09:57:58.686Z,56.67
2016-02-24T09:58:58.674Z,57.04
2016-02-24T09:59:58.644Z,57.43
2016-02-24T10:00:58.632Z,57.62
2016-02-24T10:01:58.587Z,56.85
2016-02-24T10:02:58.574Z,57.04
2016-02-24T10:03:58.545Z,56.76
2016-02-24T10:04:58.612Z,56.85
2016-02-24T10:05:58.504Z,56.85
2016-02-24T10:06:58.476Z,56.67
2016-02-24T10:07:58.463Z,56.76
2016-02-24T10:08:58.450Z,56.18
2016-02-24T10:09:58.406Z,56.67
2016-02-24T10:10:58.378Z,56.57
2016-02-24T10:11:58.364Z,57.04
2016-02-24T10:12:58.336Z,56.95
2016-02-24T10:13:58.307Z,56.85
2016-02-24T10:14:58.279Z,56.85
2016-02-24T10:15:58.250Z,56.95
2016-02-24T10:16:58.253Z,57.14
2016-02-24T10:17:58.209Z,56.76
2016-02-24T10:18:58.195Z,57.14
2016-02-24T10:19:58.167Z,56.95
2016-02-24T10:20:58.139Z,56.76
2016-02-24T10:21:58.110Z,57.04
2016-02-24T10:22:58.113Z,57.04
2016-02-24T10:23:58.069Z,56.95
2016-02-24T10:24:58.040Z,56.95
2016-02-24T10:25:58.027Z,57.04
2016-02-24T10:26:57.999Z,57.04
2016-02-24T10:27:57.969Z,56.67
2016-02-24T10:28:57.957Z,56.85
2016-02-24T10:29:57.929Z,56.85
2016-02-24T10:30:57.899Z,56.76
2016-02-24T10:31:57.871Z,55.71
2016-02-24T10:32:57.858Z,56.47
2016-02-24T10:33:57.829Z,56.47
2016-02-24T10:34:57.818Z,56.28
2016-02-24T10:35:57.788Z,56.09
2016-02-24T10:36:57.760Z,56.47
2016-02-24T10:37:57.731Z,56.38
2016-02-24T10:38:57.718Z,55.71
2016-02-24T10:39:57.862Z,56.28
2016-02-24T10:40:57.661Z,55.9
2016-02-24T10:41:57.632Z,56.18
2016-02-24T10:42:57.651Z,56.38
2016-02-24T10:43:57.591Z,55.9
2016-02-24T10:44:57.563Z,56.28
2016-02-24T10:45:57.550Z,55.99
2016-02-24T10:46:57.520Z,56.09
2016-02-24T10:47:57.492Z,56.28
2016-02-24T10:48:57.480Z,55.99
2016-02-24T10:49:57.466Z,56.09
2016-02-24T10:50:57.422Z,55.61
2016-02-24T10:51:57.409Z,56.28
2016-02-24T10:52:57.381Z,55.99
2016-02-24T10:53:57.353Z,55.9
2016-02-24T10:54:57.355Z,55.61
2016-02-24T10:55:57.310Z,55.32
2016-02-24T10:56:57.283Z,55.13
2016-02-24T10:57:57.269Z,55.13
2016-02-24T10:58:57.240Z,55.74
2016-02-24T10:59:57.228Z,55.04
2016-02-24T11:00:57.199Z,55.13
2016-02-24T11:01:57.171Z,54.88
2016-02-24T11:02:57.143Z,55.07
2016-02-24T11:03:57.113Z,55.35
2016-02-24T11:04:57.101Z,55.54
2016-02-24T11:05:57.072Z,55.74
2016-02-24T11:06:57.043Z,55.26
2016-02-24T11:07:57.031Z,55.45
2016-02-24T11:08:57.001Z,55.35
2016-02-24T11:09:56.989Z,55.07
2016-02-24T11:10:56.945Z,55.16
2016-02-24T11:11:56.932Z,55.07
2016-02-24T11:12:56.904Z,54.97
2016-02-24T11:13:56.891Z,54.68
2016-02-24T11:14:56.878Z,54.97
2016-02-24T11:15:56.849Z,54.97
2016-02-24T11:16:56.837Z,54.49
2016-02-24T11:17:56.792Z,54.88
2016-02-24T11:18:56.763Z,54.11
2016-02-24T11:19:56.735Z,54.68
2016-02-24T11:20:56.722Z,54.49
2016-02-24T11:21:56.693Z,54.88
2016-02-24T11:22:56.681Z,55.07
2016-02-24T11:23:56.652Z,54.78
2016-02-24T11:24:56.623Z,54.88
2016-02-24T11:25:56.594Z,54.3
2016-02-24T11:26:56.582Z,53.73
2016-02-24T11:27:56.553Z,53.82
2016-02-24T11:28:56.541Z,53.82
2016-02-24T11:29:56.511Z,53.92
2016-02-24T11:30:56.482Z,53.73
2016-02-24T11:31:56.471Z,54.02
2016-02-24T11:32:56.441Z,54.02
2016-02-24T11:33:56.412Z,54.02
2016-02-24T11:34:56.400Z,54.02
2016-02-24T11:35:56.356Z,53.92
2016-02-24T11:36:56.577Z,53.34
2016-02-24T11:37:56.315Z,53.25
2016-02-24T11:38:56.301Z,53.25
2016-02-24T11:39:56.273Z,53.34
2016-02-24T11:40:56.260Z,53.53
2016-02-24T11:41:56.231Z,53.66
2016-02-24T11:42:56.203Z,53.73
2016-02-24T11:43:56.174Z,53.63
2016-02-24T11:44:56.161Z,54.11
2016-02-24T11:45:56.133Z,54.11
2016-02-24T11:46:56.120Z,54.11
2016-02-24T11:47:56.075Z,54.02
2016-02-24T11:48:56.063Z,53.53
2016-02-24T11:49:56.050Z,53.06
2016-02-24T11:50:56.021Z,53.53
2016-02-24T11:51:55.992Z,53.44
2016-02-24T11:52:55.980Z,53.44
2016-02-24T11:53:55.936Z,53.25
2016-02-24T11:54:55.922Z,53.44
2016-02-24T11:55:55.894Z,53.63
2016-02-24T11:56:56.099Z,53.92
2016-02-24T11:57:55.853Z,53.82
2016-02-24T11:58:55.824Z,53.34
2016-02-24T11:59:55.810Z,53.25
2016-02-24T12:00:55.782Z,53.63
2016-02-24T12:01:55.769Z,53.16
2016-02-24T12:02:55.960Z,53.53
2016-02-24T12:03:55.713Z,53.16
2016-02-24T12:04:55.686Z,53.25
2016-02-24T12:05:55.673Z,53.25
2016-02-24T12:06:55.644Z,52.58
2016-02-24T12:07:55.615Z,52.77
2016-02-24T12:08:55.587Z,52.67
2016-02-24T12:09:55.575Z,52.48
2016-02-24T12:10:55.545Z,53.16
2016-02-24T12:11:55.517Z,52.96
2016-02-24T12:12:55.504Z,53.53
2016-02-24T12:13:55.460Z,53.63
2016-02-24T12:14:55.447Z,53.25
2016-02-24T12:15:55.434Z,53.53
2016-02-24T12:16:55.405Z,53.06
2016-02-24T12:17:55.377Z,53.25
2016-02-24T12:18:55.380Z,53.44
2016-02-24T12:19:55.398Z,53.53
2016-02-24T12:20:55.385Z,52.48
2016-02-24T12:21:55.278Z,52.1
2016-02-24T12:22:55.281Z,52.29
2016-02-24T12:23:55.252Z,52.58
2016-02-24T12:24:55.208Z,52.13
2016-02-24T12:25:55.211Z,52.22
2016-02-24T12:26:55.166Z,52.22
2016-02-24T12:27:55.216Z,52.03
2016-02-24T12:28:55.126Z,51.93
2016-02-24T12:29:55.096Z,51.46
2016-02-24T12:30:55.084Z,52.13
2016-02-24T12:31:55.055Z,52.13
2016-02-24T12:32:55.026Z,52.42
2016-02-24T12:33:54.998Z,52.83
2016-02-24T12:34:55.000Z,52.73
2016-02-24T12:35:54.956Z,53.49
2016-02-24T12:36:54.928Z,52.63
2016-02-24T12:37:54.914Z,52.25
2016-02-24T12:38:54.886Z,52.73
2016-02-24T12:39:54.874Z,51.97
2016-02-24T12:40:54.861Z,51.87
2016-02-24T12:41:54.816Z,51.48
2016-02-24T12:42:54.804Z,51.87
2016-02-24T12:43:54.775Z,52.25
2016-02-24T12:44:54.778Z,51.97
2016-02-24T12:45:54.718Z,52.44
2016-02-24T12:46:54.703Z,52.92
2016-02-24T12:47:54.680Z,53.4
2016-02-24T12:48:54.641Z,53.49
2016-02-24T12:49:54.617Z,52.92
2016-02-24T12:50:54.579Z,52.44
2016-02-24T12:51:54.541Z,52.44
2016-02-24T12:52:54.509Z,52.44